Have a Safe July 4th! 

Flight Track Log - Related Links

Times and Time Zones

All times are in EDT time to prevent confusion due to time zone crossing. See the FIN666 flight status page for this flight to view local times or setup timezone preferences in your user account.

Time Position Orientation Groundspeed Altitude Reporting Facility
EDT Latitude Longitude Course Direction KTS MPH feet Rate Location/Type
Fri 07:32:00 AM 55.8217 13.0768 49° Northeast  Level Estimated
Fri 07:33:00 AM 55.8894 13.2181 49° Northeast  Level Estimated
Fri 07:34:00 AM 55.9595 13.3656 50° Northeast  Level Estimated
Fri 07:35:00 AM 56.0296 13.5137 50° Northeast  Level Estimated
Fri 07:36:00 AM 56.0994 13.6623 50° Northeast  Level Estimated
Fri 07:37:00 AM 56.1690 13.8114 50° Northeast  Level Estimated
Fri 07:38:00 AM 56.2385 13.9611 50° Northeast  Level Estimated
Fri 07:39:00 AM 56.3078 14.1113 50° Northeast  Level Estimated
Fri 07:40:00 AM 56.3769 14.2620 50° Northeast  Level Estimated
Fri 07:41:00 AM 56.4458 14.4133 50° Northeast  Level Estimated
Fri 07:42:00 AM 56.5146 14.5652 51° Northeast  Level Estimated
Fri 07:43:00 AM 56.5831 14.7176 51° Northeast  Level Estimated
Fri 07:44:00 AM 56.6515 14.8705 51° Northeast  Level Estimated
Fri 07:45:00 AM 56.7197 15.0240 51° Northeast  Level Estimated
Fri 07:46:00 AM 56.7877 15.1781 51° Northeast  Level Estimated
Fri 07:47:00 AM 56.8555 15.3328 51° Northeast  Level Estimated
Fri 07:48:00 AM 56.9231 15.4879 51° Northeast  Level Estimated
Fri 07:49:00 AM 56.9905 15.6437 51° Northeast  Level Estimated
Fri 07:50:00 AM 57.0577 15.8000 52° Northeast  Level Estimated
Fri 07:51:00 AM 57.1248 15.9569 52° Northeast  Level Estimated
Fri 07:52:00 AM 57.1916 16.1143 52° Northeast  Level Estimated
Fri 07:53:00 AM 57.2582 16.2724 52° Northeast  Level Estimated
Fri 07:54:00 AM 57.3246 16.4310 52° Northeast  Level Estimated
Fri 07:55:00 AM 57.3909 16.5901 52° Northeast  Level Estimated
Fri 07:56:00 AM 57.4569 16.7499 52° Northeast  Level Estimated
Fri 07:57:00 AM 57.5227 16.9102 53° Northeast  Level Estimated
Fri 07:58:00 AM 57.5875 17.0689 53° Northeast  Level Estimated
Fri 07:59:00 AM 57.6520 17.2282 53° Northeast  Level Estimated
Fri 08:00:00 AM 57.7164 17.3881 53° Northeast  Level Estimated
Fri 08:01:00 AM 57.7805 17.5486 53° Northeast  Level Estimated
Fri 08:02:00 AM 57.8445 17.7096 53° Northeast  Level Estimated
Fri 08:03:00 AM 57.9082 17.8712 53° Northeast  Level Estimated
Fri 08:04:00 AM 57.9718 18.0333 53° Northeast  Level Estimated
Fri 08:05:00 AM 58.0351 18.1961 54° Northeast  Level Estimated
Fri 08:06:00 AM 58.0982 18.3594 54° Northeast  Level Estimated
Fri 08:07:00 AM 58.1611 18.5233 54° Northeast  Level Estimated
Fri 08:08:00 AM 58.2238 18.6878 54° Northeast  Level Estimated
Fri 08:09:00 AM 58.2863 18.8528 54° Northeast  Level Estimated
Fri 08:10:00 AM 58.3486 19.0184 54° Northeast  Level Estimated
Fri 08:11:00 AM 58.4106 19.1847 54° Northeast  Level Estimated
Fri 08:12:00 AM 58.4725 19.3515 55° Northeast  Level Estimated
Fri 08:13:00 AM 58.5341 19.5189 55° Northeast  Level Estimated
Fri 08:14:00 AM 58.5955 19.6868 55° Northeast  Level Estimated
Fri 08:15:00 AM 58.6567 19.8554 55° Northeast  Level Estimated
Fri 08:16:00 AM 58.7177 20.0246 55° Northeast  Level Estimated
Fri 08:17:00 AM 58.7784 20.1943 55° Northeast  Level Estimated
Fri 08:18:00 AM 58.8390 20.3647 55° Northeast  Level Estimated
Fri 08:19:00 AM 58.8993 20.5356 56° Northeast  Level Estimated
Fri 08:20:00 AM 58.9593 20.7072 56° Northeast  Level Estimated
Fri 08:21:00 AM 59.0192 20.8793 56° Northeast  Level Estimated
Fri 08:22:00 AM 59.0788 21.0520 56° Northeast  Level Estimated
Fri 08:23:00 AM 59.1382 21.2254 56° Northeast  Level Estimated
Fri 08:24:00 AM 59.1973 21.3993 56° Northeast  Level Estimated
Fri 08:25:00 AM 59.2562 21.5739 57° Northeast  Level Estimated
Fri 08:26:00 AM 59.3149 21.7490 57° Northeast  Level Estimated
Fri 08:27:00 AM 59.3734 21.9248 57° Northeast  Level Estimated
Fri 08:28:00 AM 59.4316 22.1011 57° Northeast  Level Estimated
Fri 08:29:00 AM 59.4895 22.2781 57° Northeast  Level Estimated
Fri 08:30:00 AM 59.5473 22.4556 57° Northeast  Level Estimated
Fri 08:31:00 AM 59.6048 22.6338 57° Northeast  Level Estimated
Fri 08:32:00 AM 59.6620 22.8126 58° Northeast  Level Estimated
Fri 08:33:00 AM 59.7190 22.9920 58° Northeast  Level Estimated
Fri 08:34:00 AM 59.7758 23.1720 58° Northeast  Level Estimated
Fri 08:35:00 AM 59.8323 23.3526 58° Northeast  Level Estimated
Fri 08:36:00 AM 59.8885 23.5338 58° Northeast  Level Estimated
Fri 08:37:00 AM 59.9446 23.7157 58° Northeast  Level Estimated
Fri 08:38:00 AM 60.0003 23.8981 59° Northeast  Level Estimated
Fri 08:39:00 AM 60.0558 24.0812 59° Northeast  Level Estimated
Fri 08:40:00 AM 60.1111 24.2649 59° Northeast  Level Estimated
Fri 08:41:00 AM 60.1661 24.4492 59° Northeast  Level Estimated
Fri 08:42:00 AM 60.2209 24.6341 59° Northeast  Level Estimated
Fri 08:43:00 AM 60.2753 24.8197 59° Northeast  Level Estimated
Fri 08:44:00 AM 60.3172 24.9633 59° Northeast  Level Estimated
Fri 08:45:00 AM 60.3172 24.9633 37° Northeast  Level Estimated
Fri 08:46:00 AM 60.3172 24.9633 37° Northeast  Level Estimated
Fri 08:47:00 AM 60.3172 24.9633 37° Northeast  Level Estimated
Fri 08:48:00 AM 60.3172 24.9633 37° Northeast  Level Estimated
Fri 08:49:00 AM 60.3172 24.9633 37° Northeast  Level Estimated
Fri 08:50:00 AM 60.3172 24.9633 37° Northeast  Level Estimated
Fri 08:51:00 AM 60.3172 24.9633 37° Northeast  Level Estimated
Fri 08:52:00 AM 60.3172 24.9633 37° Northeast  Level Estimated
Fri 08:53:00 AM 60.3172 24.9633 37° Northeast  Level Estimated
Fri 08:54:00 AM 60.3172 24.9633 37° Northeast  Level Estimated
Fri 08:55:00 AM 60.3172 24.9633 37° Northeast  Level Estimated
Fri 08:56:00 AM 60.3172 24.9633 37° Northeast  Level Estimated

Login

Don't have an account? Register now (free) for customized features, flight alerts, and more!